Etusivu
METAR-TAF:

METAR-TAF

Lentoasemat :

Sanikiluaqin lentoasema

Sanikiluaq, Nunavut, Kanada

Leveyspiiri: 56-32N, Pituuspiiri: 079-15W, korkeus merenpinnasta: 32 m

Tämänhetkinen sää

Tämä raportti tehtiin 17 tuntia ja 19 minuuttia sitten, kello 22.00 UTC
Tuuli 8 kn pohjoisesta/koillisesta
Lämpötila 2°C
Kosteus 87%
Ilmanpaine 1013 hPa
Näkyvyys: 12.9 km
Hajonneita pilviä 1000 ft:n korkeudessa

METAR: CYSK 052200Z 02008KT 8SM BKN010 02/00 A2990 RMK SF6 LAST OBS/NEXT 081200UTC SLP128

Aika: 11:19 (15:19 UTC)


TAF: puuttuu

Säähavainnot ja -ennusteet yli 4000 lentoasemalta (METAR- ja TAF-raportit).

Käytössä olevat sääasemat on merkitty karttaan keltaisilla ja punaisilla pisteillä.

Aseta hiiri pisteen päälle nähdäksesi sääaseman nimen.

Klikkaa sitten nähdäksesi säähavainnot ja -ennusteet.

Kartan vaihtaminen: klikkaa mustalla rastilla varustettuja vihreitä pisteitä, niin voit zoomata sisään; viivalla varustettua vihreää pistettä, niin voit zoomata ulos tai vihreitä nuolia, niin pääset viereisille kartoille.


METAR-TAF: